Time;durP1;ratioP1;P1;durP2;ratioP2;P2;SDS_P1;SDS_P2;PMS_P1;PMS_P2;Temp;Humidity;BMP_temperature;BMP_pressure;BME280_temperature;BME280_humidity;BME280_pressure;Samples;Min_cycle;Max_cycle;Signal;HPM_P1;HPM_P2
2023/03/01 00:02:01;;;;;;;203.30;34.42;;;-3.10;99.90;;;;;;5027223;28;20687;-34
2023/03/01 00:04:27;;;;;;;237.55;38.45;;;-3.20;99.90;;;;;;5026222;28;20050;-34
2023/03/01 00:06:53;;;;;;;133.57;30.75;;;-3.20;99.90;;;;;;5024865;28;20091;-35
2023/03/01 00:09:19;;;;;;;192.43;34.20;;;-3.20;99.90;;;;;;5026056;28;20455;-34
2023/03/01 00:11:45;;;;;;;166.27;30.63;;;-3.20;99.90;;;;;;5026033;28;20069;-35
2023/03/01 00:14:12;;;;;;;102.30;26.42;;;-3.20;99.90;;;;;;5025017;28;20049;-35
2023/03/01 00:16:40;;;;;;;207.77;33.00;;;-3.20;99.90;;;;;;5024107;28;20485;-34
2023/03/01 00:19:09;;;;;;;154.02;28.63;;;-3.30;99.90;;;;;;5024648;28;20068;-35
2023/03/01 00:21:35;;;;;;;144.95;29.83;;;-3.30;99.90;;;;;;5025749;28;20084;-34
2023/03/01 00:24:02;;;;;;;91.38;24.88;;;-3.30;99.90;;;;;;5025980;28;20088;-34
2023/03/01 00:26:28;;;;;;;100.28;26.17;;;-3.40;99.90;;;;;;5026291;28;20095;-34
2023/03/01 00:28:55;;;;;;;105.70;25.45;;;-3.40;99.90;;;;;;5025915;28;20034;-35
2023/03/01 00:31:27;;;;;;;107.57;26.83;;;-3.40;99.90;;;;;;5026352;28;20052;-35
2023/03/01 00:33:57;;;;;;;42.78;22.23;;;-3.50;99.90;;;;;;5026290;28;20076;-35
2023/03/01 00:36:25;;;;;;;62.83;23.77;;;-3.60;99.90;;;;;;5026025;28;20156;-34
2023/03/01 00:38:51;;;;;;;57.65;23.45;;;-3.70;99.90;;;;;;5026174;28;20041;-34
2023/03/01 00:41:18;;;;;;;99.93;25.00;;;-3.70;99.90;;;;;;5026351;28;20056;-34
2023/03/01 00:43:45;;;;;;;58.08;21.85;;;-3.80;99.90;;;;;;5028753;28;20041;-35
2023/03/01 00:46:17;;;;;;;62.97;20.65;;;-3.80;99.90;;;;;;5029462;28;20053;-35
2023/03/01 00:48:43;;;;;;;61.95;21.10;;;-2.80;99.90;;;;;;5029836;28;20029;-34
2023/03/01 00:51:18;;;;;;;60.30;20.63;;;-3.60;99.90;;;;;;5029795;28;20060;-35
2023/03/01 00:53:44;;;;;;;49.75;18.13;;;-4.00;99.90;;;;;;5030006;28;20411;-34
2023/03/01 00:56:12;;;;;;;38.97;18.52;;;-4.00;99.90;;;;;;5029197;28;20041;-34
2023/03/01 00:58:38;;;;;;;26.92;16.90;;;-4.00;99.90;;;;;;5029412;28;20045;-34
2023/03/01 01:01:21;;;;;;;27.75;16.95;;;-4.00;99.90;;;;;;5029700;28;20041;-34
2023/03/01 01:03:58;;;;;;;24.95;15.23;;;-4.20;99.90;;;;;;5029623;28;20050;-34
2023/03/01 01:06:39;;;;;;;34.72;15.85;;;-4.20;99.90;;;;;;5029505;28;20082;-34
2023/03/01 01:09:06;;;;;;;25.65;15.90;;;-4.30;99.90;;;;;;5029301;28;20517;-34
2023/03/01 01:11:35;;;;;;;26.10;15.02;;;-4.30;99.90;;;;;;5028876;28;20046;-34
2023/03/01 01:14:00;;;;;;;25.00;15.68;;;-4.40;99.90;;;;;;5028769;28;20136;-34
2023/03/01 01:16:28;;;;;;;24.98;16.02;;;-4.40;99.90;;;;;;5027739;28;20141;-34
2023/03/01 01:18:53;;;;;;;25.15;16.02;;;-4.40;99.90;;;;;;5029043;28;20188;-34
2023/03/01 01:21:22;;;;;;;31.90;16.13;;;-4.60;99.90;;;;;;5029258;28;20618;-34
2023/03/01 01:23:48;;;;;;;30.92;17.13;;;-4.50;99.90;;;;;;5028960;28;20033;-34
2023/03/01 01:26:18;;;;;;;41.47;17.35;;;-4.50;99.90;;;;;;5028981;28;20096;-34
2023/03/01 01:28:45;;;;;;;75.88;20.30;;;-4.50;99.90;;;;;;5028715;28;20836;-34
2023/03/01 01:31:11;;;;;;;57.08;19.15;;;-4.50;99.90;;;;;;5029045;28;20041;-34
2023/03/01 01:33:37;;;;;;;56.30;18.90;;;-4.50;99.90;;;;;;5028540;28;20042;-34
2023/03/01 01:36:04;;;;;;;50.30;17.60;;;-4.40;99.90;;;;;;5028761;28;20045;-34
2023/03/01 01:38:30;;;;;;;31.92;15.52;;;-4.50;99.90;;;;;;5028694;28;20091;-35
2023/03/01 01:40:56;;;;;;;30.25;14.48;;;-4.40;99.90;;;;;;5028535;28;20041;-34
2023/03/01 01:43:28;;;;;;;27.55;14.80;;;-4.50;99.90;;;;;;5028377;28;20152;-34
2023/03/01 01:46:02;;;;;;;36.33;13.02;;;-6.50;99.90;;;;;;5028516;28;20057;-34
2023/03/01 01:48:52;;;;;;;57.97;15.73;;;-4.50;99.90;;;;;;5028579;28;20046;-33
2023/03/01 01:51:23;;;;;;;71.70;16.42;;;-4.50;99.90;;;;;;5027314;28;20455;-34
2023/03/01 01:53:53;;;;;;;63.97;16.35;;;-4.50;99.90;;;;;;5028223;28;20147;-34
2023/03/01 01:56:20;;;;;;;29.20;16.33;;;-4.40;99.90;;;;;;5028869;28;20041;-34
2023/03/01 01:58:47;;;;;;;38.35;15.77;;;-4.50;99.90;;;;;;5028740;28;20190;-34
2023/03/01 02:01:13;;;;;;;58.40;18.10;;;-4.50;99.90;;;;;;5027304;28;20364;-34
2023/03/01 02:03:42;;;;;;;110.53;18.70;;;-4.50;99.90;;;;;;5028436;28;20103;-34
2023/03/01 02:06:08;;;;;;;106.40;18.02;;;-4.50;99.90;;;;;;5028691;28;20091;-33
2023/03/01 02:08:37;;;;;;;53.13;16.75;;;-4.50;99.90;;;;;;5028793;28;20042;-34
2023/03/01 02:11:05;;;;;;;60.63;15.65;;;-4.40;99.90;;;;;;5028603;28;20041;-33
2023/03/01 02:13:33;;;;;;;36.22;15.82;;;-4.70;99.90;;;;;;5028000;28;20399;-33
2023/03/01 02:16:02;;;;;;;31.90;15.60;;;-4.60;99.90;;;;;;5028103;28;20087;-34
2023/03/01 02:18:28;;;;;;;29.13;15.57;;;-4.60;99.90;;;;;;5028206;28;20045;-33
2023/03/01 02:21:18;;;;;;;34.80;16.58;;;-4.70;99.90;;;;;;5027992;28;20111;-33
2023/03/01 02:23:44;;;;;;;53.60;17.17;;;-4.90;99.90;;;;;;5027912;28;20087;-33
2023/03/01 02:26:28;;;;;;;44.75;16.80;;;-4.70;99.90;;;;;;5027809;28;20486;-34
2023/03/01 02:28:53;;;;;;;44.75;17.77;;;-4.90;99.90;;;;;;5027590;28;20044;-34
2023/03/01 02:34:06;;;;;;;59.75;16.75;;;-4.80;99.90;;;;;;5027899;28;20579;-33
2023/03/01 02:36:37;;;;;;;52.85;16.88;;;-4.80;99.90;;;;;;5028096;28;20128;-34
2023/03/01 02:39:06;;;;;;;54.78;17.80;;;-4.80;99.90;;;;;;5027824;28;20573;-33
2023/03/01 02:41:36;;;;;;;43.85;16.08;;;-4.90;99.90;;;;;;5026334;28;20081;-33
2023/03/01 02:44:03;;;;;;;32.22;15.13;;;-4.80;99.90;;;;;;5027198;28;20049;-34
2023/03/01 02:46:29;;;;;;;27.15;15.48;;;-4.90;99.90;;;;;;5027441;28;20053;-33
2023/03/01 02:48:57;;;;;;;42.42;15.52;;;-4.80;99.90;;;;;;5027067;28;20055;-33
2023/03/01 02:51:46;;;;;;;39.83;16.17;;;-5.00;99.90;;;;;;5027696;28;20049;-33
2023/03/01 02:54:41;;;;;;;27.40;14.15;;;-4.90;99.90;;;;;;5027639;28;20403;-34
2023/03/01 02:57:08;;;;;;;25.48;15.93;;;-4.80;99.90;;;;;;5026749;28;20057;-34
2023/03/01 02:59:39;;;;;;;25.15;15.50;;;-4.80;99.90;;;;;;5027403;28;20180;-33
2023/03/01 03:02:20;;;;;;;27.90;16.42;;;-4.80;99.90;;;;;;5027507;28;20064;-33
2023/03/01 03:04:46;;;;;;;26.25;15.23;;;-4.90;99.90;;;;;;5025906;28;20045;-33
2023/03/01 03:07:12;;;;;;;28.60;16.90;;;-4.90;99.90;;;;;;5026976;28;20369;-33
2023/03/01 03:09:37;;;;;;;40.92;17.50;;;-4.90;99.90;;;;;;5026934;28;20056;-33
2023/03/01 03:12:03;;;;;;;53.42;19.10;;;-4.90;99.90;;;;;;5026666;28;20140;-33
2023/03/01 03:14:29;;;;;;;48.97;16.60;;;-4.90;99.90;;;;;;5026321;28;20541;-34
2023/03/01 03:16:55;;;;;;;31.42;16.08;;;-5.00;99.90;;;;;;5026634;28;20049;-33
2023/03/01 03:19:20;;;;;;;35.92;15.27;;;-4.90;99.90;;;;;;5027150;28;20050;-34
2023/03/01 03:21:46;;;;;;;31.38;17.13;;;-4.90;99.90;;;;;;5026968;28;20045;-34
2023/03/01 03:24:12;;;;;;;30.10;15.90;;;-5.00;99.90;;;;;;5027451;28;20128;-33
2023/03/01 03:26:38;;;;;;;43.85;15.95;;;-4.80;99.90;;;;;;5027159;28;20041;-33
2023/03/01 03:29:03;;;;;;;26.77;15.80;;;-4.90;99.90;;;;;;5026570;28;20099;-34
2023/03/01 03:31:29;;;;;;;24.50;15.48;;;-4.90;99.90;;;;;;5026753;28;20084;-33
2023/03/01 03:33:56;;;;;;;24.00;14.57;;;-4.70;99.90;;;;;;5026967;28;20060;-34
2023/03/01 03:36:24;;;;;;;28.38;16.92;;;-4.90;99.90;;;;;;5027108;28;20045;-33
2023/03/01 03:38:50;;;;;;;27.23;16.65;;;-4.90;99.90;;;;;;5026662;28;20056;-33
2023/03/01 03:41:17;;;;;;;26.10;15.82;;;-4.90;99.90;;;;;;5026756;28;20037;-33
2023/03/01 03:43:43;;;;;;;22.17;14.43;;;-4.90;99.90;;;;;;5026262;28;20041;-33
2023/03/01 03:46:10;;;;;;;24.13;15.40;;;-4.90;99.90;;;;;;5026264;28;20064;-33
2023/03/01 03:48:40;;;;;;;22.98;14.52;;;-5.10;99.90;;;;;;5026553;28;20085;-33
2023/03/01 03:51:06;;;;;;;23.20;14.60;;;-5.10;99.90;;;;;;5026066;28;20048;-34
2023/03/01 03:53:32;;;;;;;22.45;14.05;;;-5.10;99.90;;;;;;5025896;28;20041;-33
2023/03/01 03:55:58;;;;;;;20.65;13.35;;;-5.10;99.90;;;;;;5025868;28;20049;-33
2023/03/01 03:58:25;;;;;;;20.58;13.05;;;-5.20;99.90;;;;;;5026475;28;20574;-33
2023/03/01 04:00:56;;;;;;;23.17;13.32;;;-5.20;99.90;;;;;;5025987;28;20046;-33
2023/03/01 04:03:22;;;;;;;22.52;12.88;;;-5.30;99.90;;;;;;5025884;28;20050;-34
2023/03/01 04:05:52;;;;;;;20.85;12.95;;;-5.20;99.90;;;;;;5026086;28;20057;-34
2023/03/01 04:08:20;;;;;;;19.33;12.55;;;-5.40;99.90;;;;;;5026201;28;20052;-34
2023/03/01 04:10:49;;;;;;;23.13;13.40;;;-5.40;99.90;;;;;;5026324;28;20050;-34
2023/03/01 04:13:21;;;;;;;19.88;12.52;;;-5.50;99.90;;;;;;5026237;28;20050;-34
2023/03/01 04:15:49;;;;;;;19.23;12.75;;;-5.50;99.90;;;;;;5026791;28;20073;-34
2023/03/01 04:18:16;;;;;;;18.45;11.82;;;-5.50;99.90;;;;;;5030637;28;20041;-34
2023/03/01 04:20:43;;;;;;;20.10;12.65;;;-5.50;99.90;;;;;;5030469;28;20056;-34
2023/03/01 04:23:20;;;;;;;18.48;11.98;;;-5.60;99.90;;;;;;5029542;28;20049;-34
2023/03/01 04:25:57;;;;;;;16.92;11.30;;;-5.60;99.90;;;;;;5029960;28;20046;-34
2023/03/01 04:28:24;;;;;;;17.02;10.05;;;-5.60;99.90;;;;;;5029701;28;20426;-34
2023/03/01 04:30:50;;;;;;;33.45;11.00;;;-5.60;99.90;;;;;;5029809;28;20049;-34
2023/03/01 04:33:16;;;;;;;14.70;9.65;;;-5.80;99.90;;;;;;5029792;28;20100;-34
2023/03/01 04:35:41;;;;;;;15.48;10.35;;;-5.60;99.90;;;;;;5030046;28;20068;-34
2023/03/01 04:38:08;;;;;;;14.52;9.95;;;-5.70;99.90;;;;;;5029932;28;20055;-34
2023/03/01 04:40:34;;;;;;;14.90;9.80;;;-5.70;99.90;;;;;;5030197;28;20053;-34
2023/03/01 04:43:01;;;;;;;14.48;9.60;;;-5.70;99.90;;;;;;5029555;28;20432;-34
2023/03/01 04:45:27;;;;;;;12.73;8.98;;;-5.80;99.90;;;;;;5028934;28;20058;-34
2023/03/01 04:47:53;;;;;;;12.45;9.27;;;-5.80;99.90;;;;;;5029313;28;20069;-34
2023/03/01 04:50:23;;;;;;;11.95;8.65;;;-5.80;99.90;;;;;;5029344;28;20038;-34
2023/03/01 04:52:49;;;;;;;12.32;9.10;;;-5.80;99.90;;;;;;5029872;28;20451;-34
2023/03/01 04:55:14;;;;;;;9.45;7.13;;;-5.80;99.90;;;;;;5029689;28;20081;-34
2023/03/01 04:57:41;;;;;;;10.85;7.88;;;-5.80;99.90;;;;;;5029942;28;20045;-34
2023/03/01 05:00:19;;;;;;;10.55;7.50;;;-5.80;99.90;;;;;;5029595;28;20041;-34
2023/03/01 05:02:55;;;;;;;11.13;8.35;;;-5.80;99.90;;;;;;5030082;28;20041;-34
2023/03/01 05:05:30;;;;;;;11.98;8.43;;;-5.80;99.90;;;;;;5029761;28;20045;-33
2023/03/01 05:08:02;;;;;;;12.18;8.35;;;-5.80;99.90;;;;;;5029126;28;20159;-33
2023/03/01 05:10:30;;;;;;;13.32;8.68;;;-5.80;99.90;;;;;;5029289;28;20046;-33
2023/03/01 05:12:57;;;;;;;14.25;10.02;;;-5.90;99.90;;;;;;5029312;28;20052;-33
2023/03/01 05:15:27;;;;;;;14.93;10.38;;;-5.90;99.90;;;;;;5029187;28;20045;-33
2023/03/01 05:17:55;;;;;;;14.48;9.85;;;-5.90;99.90;;;;;;5029228;28;20045;-33
2023/03/01 05:20:24;;;;;;;13.40;9.93;;;-6.00;99.90;;;;;;5029427;28;20045;-33
2023/03/01 05:22:51;;;;;;;13.18;8.80;;;-5.90;99.90;;;;;;5029368;28;20045;-33
2023/03/01 05:25:17;;;;;;;13.73;9.50;;;-6.00;99.90;;;;;;5029383;28;20041;-33
2023/03/01 05:27:43;;;;;;;15.13;10.48;;;-6.00;99.90;;;;;;5028817;28;20124;-33
2023/03/01 05:30:16;;;;;;;13.75;9.27;;;-6.00;99.90;;;;;;5029014;28;20107;-33
2023/03/01 05:32:48;;;;;;;12.07;8.80;;;-6.00;99.90;;;;;;5029249;28;20045;-33
2023/03/01 05:35:15;;;;;;;13.13;9.37;;;-6.00;99.90;;;;;;5029237;28;20049;-33
2023/03/01 05:37:46;;;;;;;14.48;9.63;;;-6.10;99.90;;;;;;5028850;28;20715;-33
2023/03/01 05:40:15;;;;;;;14.02;9.43;;;-6.10;99.90;;;;;;5028669;28;20060;-33
2023/03/01 05:42:45;;;;;;;13.32;9.13;;;-6.00;99.90;;;;;;5028745;28;20053;-33
2023/03/01 05:45:12;;;;;;;11.00;8.00;;;-6.10;99.90;;;;;;5027592;28;20068;-33
2023/03/01 05:47:43;;;;;;;10.57;8.02;;;-6.00;99.90;;;;;;5028925;28;20041;-33
2023/03/01 05:50:11;;;;;;;11.75;8.43;;;-6.00;99.90;;;;;;5028616;28;20477;-33
2023/03/01 05:52:36;;;;;;;9.45;7.18;;;-6.00;99.90;;;;;;5029208;28;20047;-33
2023/03/01 05:55:02;;;;;;;11.48;8.85;;;-6.00;99.90;;;;;;5029125;28;20422;-33
2023/03/01 05:57:29;;;;;;;11.35;8.10;;;-6.00;99.90;;;;;;5028881;28;20120;-33
2023/03/01 05:59:54;;;;;;;10.80;7.70;;;-6.00;99.90;;;;;;5028808;28;20705;-34
2023/03/01 06:02:20;;;;;;;15.90;10.90;;;-6.10;99.90;;;;;;5028263;28;20045;-33
2023/03/01 06:04:46;;;;;;;13.90;9.80;;;-6.00;99.90;;;;;;5028666;28;20057;-33
2023/03/01 06:07:11;;;;;;;16.63;11.32;;;-6.00;99.90;;;;;;5028584;28;20053;-33
2023/03/01 06:09:37;;;;;;;13.40;9.15;;;-6.00;99.90;;;;;;5028300;28;20099;-33
2023/03/01 06:12:03;;;;;;;12.23;9.40;;;-6.00;99.90;;;;;;5028806;28;20552;-33
2023/03/01 06:14:28;;;;;;;13.60;8.95;;;-6.00;99.90;;;;;;5027171;28;20381;-33
2023/03/01 06:16:54;;;;;;;12.00;9.00;;;-6.00;99.90;;;;;;5028002;28;20045;-33
2023/03/01 06:19:20;;;;;;;13.80;9.40;;;-6.00;99.90;;;;;;5027947;28;20048;-33
2023/03/01 06:21:45;;;;;;;17.13;11.27;;;-6.00;99.90;;;;;;5028574;28;20049;-33
2023/03/01 06:24:11;;;;;;;19.88;11.75;;;-6.00;99.90;;;;;;5028085;28;20060;-33
2023/03/01 06:26:36;;;;;;;18.13;12.10;;;-6.00;99.90;;;;;;5028279;28;20095;-34
2023/03/01 06:29:02;;;;;;;18.10;12.30;;;-5.90;99.90;;;;;;5028069;28;20115;-33
2023/03/01 06:31:28;;;;;;;16.70;11.85;;;-5.90;99.90;;;;;;5027680;28;20055;-33
2023/03/01 06:33:54;;;;;;;15.77;10.75;;;-5.80;99.90;;;;;;5028068;28;20042;-33
2023/03/01 06:36:20;;;;;;;17.08;11.73;;;-5.70;99.90;;;;;;5027447;28;20079;-33
2023/03/01 06:38:46;;;;;;;20.10;12.73;;;-5.60;99.90;;;;;;5027434;28;20565;-34
2023/03/01 06:41:12;;;;;;;17.50;11.73;;;-5.60;99.90;;;;;;5027739;28;20144;-34
2023/03/01 06:43:38;;;;;;;18.13;12.18;;;-5.50;99.90;;;;;;5027139;28;20060;-33
2023/03/01 06:46:05;;;;;;;20.20;13.07;;;-5.40;99.90;;;;;;5027512;28;20127;-34
2023/03/01 06:48:31;;;;;;;20.50;13.30;;;-5.30;99.90;;;;;;5027207;28;20057;-33
2023/03/01 06:50:59;;;;;;;20.63;14.05;;;-5.20;99.90;;;;;;5027529;28;20095;-33
2023/03/01 06:53:25;;;;;;;25.48;15.63;;;-5.00;99.90;;;;;;5025779;28;20471;-34
2023/03/01 06:55:57;;;;;;;24.95;15.68;;;-4.90;99.90;;;;;;5027721;28;20045;-34
2023/03/01 06:58:23;;;;;;;26.67;16.05;;;-4.80;99.90;;;;;;5027262;28;20080;-33
2023/03/01 07:00:49;;;;;;;24.27;14.82;;;-4.80;99.90;;;;;;5027543;28;20460;-34
2023/03/01 07:03:14;;;;;;;23.67;14.93;;;-4.70;99.90;;;;;;5027000;28;20045;-33
2023/03/01 07:05:40;;;;;;;22.52;14.95;;;-4.60;99.90;;;;;;5026760;28;20159;-34
2023/03/01 07:08:06;;;;;;;22.92;14.50;;;-4.50;99.90;;;;;;5027196;28;20072;-33
2023/03/01 07:10:32;;;;;;;23.83;14.88;;;-4.40;99.90;;;;;;5027058;28;20468;-34
2023/03/01 07:12:58;;;;;;;23.73;14.93;;;-4.30;99.90;;;;;;5027319;28;20067;-34
2023/03/01 07:15:25;;;;;;;25.00;15.30;;;-4.20;99.90;;;;;;5026469;28;20103;-34
2023/03/01 07:17:51;;;;;;;34.47;18.85;;;-4.00;99.90;;;;;;5027069;28;20049;-33
2023/03/01 07:20:18;;;;;;;31.45;18.40;;;-3.90;99.90;;;;;;5027034;28;20056;-34
2023/03/01 07:22:44;;;;;;;32.58;19.55;;;-3.80;99.90;;;;;;5026258;28;20059;-34
2023/03/01 07:25:10;;;;;;;34.55;19.48;;;-3.70;99.90;;;;;;5008283;28;20439;-34
2023/03/01 07:27:36;;;;;;;32.25;19.33;;;-3.60;99.90;;;;;;5026137;28;20053;-33
2023/03/01 07:30:02;;;;;;;30.42;18.92;;;-3.50;99.90;;;;;;5026529;28;20057;-34
2023/03/01 07:32:28;;;;;;;31.17;18.90;;;-3.30;99.90;;;;;;5026441;28;20084;-33
2023/03/01 07:34:53;;;;;;;32.65;19.60;;;-3.20;99.90;;;;;;5026705;28;20056;-33
2023/03/01 07:37:19;;;;;;;30.15;18.42;;;-3.10;99.90;;;;;;5026211;28;20167;-33
2023/03/01 07:39:45;;;;;;;33.72;19.95;;;-2.90;99.90;;;;;;5041574;28;20045;-34
2023/03/01 07:42:10;;;;;;;27.73;18.35;;;-2.80;99.90;;;;;;5027051;28;20045;-34
2023/03/01 07:44:36;;;;;;;35.40;20.95;;;-2.60;99.90;;;;;;5025777;28;20133;-34
2023/03/01 07:47:03;;;;;;;34.20;20.58;;;-2.40;99.90;;;;;;5026311;28;20053;-33
2023/03/01 07:49:29;;;;;;;36.58;21.90;;;-2.20;99.90;;;;;;5026089;28;20041;-34
2023/03/01 07:51:55;;;;;;;40.30;22.90;;;-2.10;99.90;;;;;;5025255;28;21023;-34
2023/03/01 07:54:21;;;;;;;40.20;23.25;;;-1.90;99.90;;;;;;5026309;28;20045;-34
2023/03/01 07:56:47;;;;;;;44.67;25.75;;;-0.60;99.90;;;;;;5026261;28;20053;-34
2023/03/01 07:59:13;;;;;;;50.17;27.92;;;-1.60;99.90;;;;;;5025884;28;20080;-34
2023/03/01 08:01:39;;;;;;;43.35;25.27;;;-1.50;99.90;;;;;;5026126;28;20060;-34
2023/03/01 08:04:06;;;;;;;42.97;25.83;;;-1.40;99.90;;;;;;5026056;28;20559;-34
2023/03/01 08:06:34;;;;;;;36.22;24.20;;;-1.20;99.90;;;;;;5025795;28;20063;-34
2023/03/01 08:09:00;;;;;;;43.90;24.77;;;-1.10;99.90;;;;;;5026157;28;20383;-34
2023/03/01 08:11:27;;;;;;;52.63;28.33;;;-0.10;99.90;;;;;;5024599;28;20098;-34
2023/03/01 08:13:54;;;;;;;61.85;33.33;;;-1.00;99.90;;;;;;5025923;28;20380;-34
2023/03/01 08:16:20;;;;;;;64.00;33.85;;;-0.90;99.90;;;;;;5007724;28;20045;-34
2023/03/01 08:18:45;;;;;;;66.90;33.83;;;-0.70;99.90;;;;;;5018118;28;20046;-34
2023/03/01 08:21:16;;;;;;;71.70;36.88;;;-0.60;99.90;;;;;;5019771;28;20049;-34
2023/03/01 08:23:43;;;;;;;70.07;34.33;;;-0.50;99.90;;;;;;5020099;28;20119;-34
2023/03/01 08:26:15;;;;;;;72.25;36.95;;;-0.40;99.90;;;;;;5020818;28;20056;-34
2023/03/01 08:28:41;;;;;;;75.13;36.25;;;-0.30;99.90;;;;;;5020481;28;20751;-34
2023/03/01 08:31:20;;;;;;;73.03;37.38;;;-0.20;99.90;;;;;;5020935;28;20073;-34
2023/03/01 08:33:54;;;;;;;76.85;37.78;;;0.00;99.90;;;;;;5021071;28;20125;-34
2023/03/01 08:36:22;;;;;;;74.90;36.92;;;0.00;99.90;;;;;;5020887;28;20041;-34
2023/03/01 08:38:47;;;;;;;78.88;40.17;;;0.10;99.90;;;;;;5020225;28;20439;-34
2023/03/01 08:41:14;;;;;;;77.55;38.28;;;0.10;99.90;;;;;;5021053;28;20041;-34
2023/03/01 08:43:40;;;;;;;77.38;37.72;;;0.20;99.90;;;;;;5019831;28;20077;-34
2023/03/01 08:46:05;;;;;;;73.03;38.22;;;0.30;99.90;;;;;;5019729;28;20145;-34
2023/03/01 08:48:31;;;;;;;77.13;36.72;;;0.40;99.90;;;;;;5020202;28;20060;-34
2023/03/01 08:50:57;;;;;;;86.22;39.22;;;0.60;99.90;;;;;;5021260;28;20480;-34
2023/03/01 08:53:23;;;;;;;82.60;38.33;;;1.80;99.90;;;;;;5020923;28;20052;-34
2023/03/01 08:55:48;;;;;;;79.93;37.35;;;1.20;99.90;;;;;;5020638;28;20114;-34
2023/03/01 08:58:14;;;;;;;70.30;37.75;;;1.30;99.90;;;;;;5020088;28;20057;-34
2023/03/01 09:00:40;;;;;;;72.63;36.05;;;1.30;99.90;;;;;;5020207;28;20750;-34
2023/03/01 09:03:05;;;;;;;85.45;39.03;;;1.20;99.90;;;;;;5021090;28;20724;-35
2023/03/01 09:05:32;;;;;;;74.22;35.15;;;1.10;99.90;;;;;;5025147;28;20045;-34
2023/03/01 09:07:58;;;;;;;76.63;38.00;;;1.00;99.90;;;;;;5025446;28;20045;-34
2023/03/01 09:10:24;;;;;;;61.58;34.08;;;1.00;99.90;;;;;;5024848;28;20048;-34
2023/03/01 09:12:50;;;;;;;67.15;36.22;;;1.00;99.90;;;;;;5024586;28;20480;-34
2023/03/01 09:15:16;;;;;;;78.03;39.25;;;1.20;99.90;;;;;;5016091;28;20057;-34
2023/03/01 09:17:42;;;;;;;72.22;38.42;;;1.10;99.90;;;;;;5023999;28;20044;-34
2023/03/01 09:20:08;;;;;;;95.30;39.67;;;1.20;99.90;;;;;;5024548;28;20045;-34
2023/03/01 09:22:34;;;;;;;61.08;35.20;;;1.10;99.90;;;;;;5024325;28;20037;-35
2023/03/01 09:25:00;;;;;;;85.07;39.20;;;1.50;99.90;;;;;;5023680;28;20128;-34
2023/03/01 09:27:26;;;;;;;91.35;39.90;;;1.60;99.90;;;;;;5024212;28;20095;-34
2023/03/01 09:29:52;;;;;;;102.20;38.30;;;2.10;99.90;;;;;;5024272;28;20441;-34
2023/03/01 09:32:17;;;;;;;64.15;36.35;;;1.90;99.90;;;;;;5027629;28;20037;-35
2023/03/01 09:35:04;;;;;;;62.47;34.90;;;2.00;99.90;;;;;;5027244;28;20094;-34
2023/03/01 09:37:32;;;;;;;78.28;38.33;;;2.00;99.90;;;;;;5027943;28;20126;-34
2023/03/01 09:39:57;;;;;;;89.05;38.08;;;2.20;99.90;;;;;;5027587;28;20127;-34
2023/03/01 09:42:24;;;;;;;191.93;42.90;;;2.10;99.90;;;;;;5027387;28;20496;-34
2023/03/01 09:45:07;;;;;;;310.90;50.22;;;2.30;99.90;;;;;;5027339;28;20465;-34
2023/03/01 09:47:36;;;;;;;114.97;37.53;;;2.30;99.90;;;;;;5026736;28;20042;-34
2023/03/01 09:50:08;;;;;;;76.32;37.85;;;2.50;99.90;;;;;;5026728;28;20080;-34
2023/03/01 09:53:00;;;;;;;101.70;40.17;;;2.60;99.90;;;;;;5026807;28;20041;-34
2023/03/01 09:56:04;;;;;;;83.38;39.10;;;2.70;99.90;;;;;;5027755;28;20106;-34
2023/03/01 09:58:57;;;;;;;72.13;37.90;;;2.70;99.90;;;;;;5027643;28;20068;-34
2023/03/01 10:01:59;;;;;;;68.50;35.97;;;2.80;99.90;;;;;;5027211;28;20041;-34
2023/03/01 10:04:50;;;;;;;58.35;33.88;;;2.90;99.90;;;;;;5027242;28;20709;-35
2023/03/01 10:07:46;;;;;;;58.05;36.10;;;2.90;99.90;;;;;;5027568;28;20186;-35
2023/03/01 10:10:38;;;;;;;50.38;32.88;;;2.90;99.90;;;;;;5027270;28;20111;-34
2023/03/01 10:13:33;;;;;;;55.95;35.08;;;3.00;99.90;;;;;;5026491;28;20049;-35
2023/03/01 10:16:11;;;;;;;56.13;37.22;;;3.20;99.90;;;;;;5019342;28;20057;-35
2023/03/01 10:18:39;;;;;;;69.03;42.10;;;3.60;99.90;;;;;;5027648;28;20137;-34
2023/03/01 10:21:17;;;;;;;64.43;39.95;;;3.60;99.90;;;;;;5027167;28;20050;-34
2023/03/01 10:23:43;;;;;;;62.03;38.50;;;3.80;99.90;;;;;;5025754;28;20562;-35
2023/03/01 10:26:27;;;;;;;55.22;35.80;;;4.00;99.90;;;;;;5027447;28;20123;-35
2023/03/01 10:29:04;;;;;;;63.42;40.40;;;4.20;99.90;;;;;;5026977;28;20098;-35
2023/03/01 10:31:44;;;;;;;53.50;36.03;;;4.10;99.90;;;;;;5027674;28;20060;-35
2023/03/01 10:34:29;;;;;;;59.03;38.42;;;4.00;99.90;;;;;;5027178;28;20072;-35
2023/03/01 10:37:11;;;;;;;60.10;39.65;;;4.10;99.90;;;;;;5027314;28;20038;-34
2023/03/01 10:39:59;;;;;;;60.45;38.55;;;4.10;99.90;;;;;;5027061;28;20049;-34
2023/03/01 10:42:33;;;;;;;57.38;38.13;;;4.20;99.90;;;;;;5026586;28;20044;-34
2023/03/01 10:45:29;;;;;;;56.90;36.22;;;4.40;99.90;;;;;;5025875;28;20041;-34
2023/03/01 10:48:25;;;;;;;53.03;37.20;;;4.70;99.90;;;;;;5026560;28;20080;-35
2023/03/01 10:51:05;;;;;;;47.08;33.67;;;5.00;99.90;;;;;;5026047;28;20499;-34
2023/03/01 10:53:49;;;;;;;50.08;31.38;;;5.20;99.90;;;;;;5026472;28;20041;-35
2023/03/01 10:56:15;;;;;;;38.70;26.60;;;5.40;99.90;;;;;;5026589;28;20042;-35
2023/03/01 10:59:04;;;;;;;38.15;27.75;;;5.40;99.90;;;;;;5026340;28;20506;-34
2023/03/01 11:01:34;;;;;;;30.85;21.95;;;5.20;99.90;;;;;;5026470;28;20424;-34
2023/03/01 11:04:05;;;;;;;33.05;21.50;;;5.00;99.90;;;;;;5026410;28;20380;-34
2023/03/01 11:06:32;;;;;;;31.30;21.57;;;5.00;99.90;;;;;;5026763;28;20090;-34
2023/03/01 11:09:14;;;;;;;28.65;20.73;;;5.10;99.90;;;;;;5026331;28;20492;-34
2023/03/01 11:11:40;;;;;;;30.50;21.20;;;5.50;99.90;;;;;;5026504;28;20103;-34
2023/03/01 11:14:25;;;;;;;25.83;17.38;;;5.60;99.90;;;;;;5025449;28;20041;-34
2023/03/01 11:17:11;;;;;;;20.30;13.90;;;5.60;99.90;;;;;;5025957;28;20045;-34
2023/03/01 11:19:37;;;;;;;21.80;13.98;;;5.20;99.90;;;;;;5026079;28;20124;-40
2023/03/01 11:22:19;;;;;;;18.45;12.95;;;5.20;99.90;;;;;;5025653;28;20049;-41
2023/03/01 11:24:51;;;;;;;23.30;13.80;;;5.20;99.90;;;;;;5026036;28;20037;-41
2023/03/01 11:27:24;;;;;;;;;;;5.10;99.90;;;;;;5025893;28;20037;-41
2023/03/01 11:30:13;;;;;;;18.65;11.52;;;5.00;99.90;;;;;;5026505;28;20693;-42
2023/03/01 11:32:59;;;;;;;21.58;13.48;;;5.00;99.90;;;;;;5026336;28;20037;-40
2023/03/01 11:35:27;;;;;;;21.77;14.65;;;5.00;99.90;;;;;;5026585;28;20037;-42
2023/03/01 11:38:21;;;;;;;22.10;14.00;;;5.00;99.90;;;;;;5026418;28;20042;-41
2023/03/01 11:41:08;;;;;;;22.17;14.63;;;5.10;99.90;;;;;;5026332;28;20041;-41
2023/03/01 11:43:36;;;;;;;20.42;14.68;;;7.50;99.90;;;;;;5026370;28;20049;-41
2023/03/01 11:46:22;;;;;;;27.13;16.65;;;5.30;99.90;;;;;;5025919;28;20317;-42
2023/03/01 11:49:08;;;;;;;23.05;17.10;;;5.30;99.90;;;;;;5026559;28;20802;-41
2023/03/01 11:52:00;;;;;;;24.05;17.83;;;5.40;99.90;;;;;;5026534;28;20095;-41
2023/03/01 11:54:38;;;;;;;22.90;16.88;;;5.50;99.90;;;;;;5026456;28;20862;-41
2023/03/01 11:57:16;;;;;;;26.52;18.75;;;5.50;99.90;;;;;;5025479;28;20087;-40
2023/03/01 12:00:06;;;;;;;26.08;17.20;;;5.60;99.90;;;;;;5025864;28;20072;-41
2023/03/01 12:02:46;;;;;;;23.60;16.35;;;5.60;99.90;;;;;;5026313;28;20037;-40
2023/03/01 12:05:35;;;;;;;24.70;16.65;;;5.70;99.90;;;;;;5026052;28;20080;-42
2023/03/01 12:08:14;;;;;;;24.10;16.13;;;5.80;99.90;;;;;;4988207;28;20104;-41
2023/03/01 12:10:49;;;;;;;23.02;15.00;;;5.90;99.90;;;;;;5026793;28;20037;-40
2023/03/01 12:13:38;;;;;;;24.10;16.08;;;5.70;99.90;;;;;;5026742;28;20080;-41
2023/03/01 12:16:10;;;;;;;20.55;14.02;;;5.90;99.90;;;;;;5026708;28;20157;-41
2023/03/01 12:18:59;;;;;;;22.77;15.98;;;6.90;99.90;;;;;;5026147;28;20069;-41
2023/03/01 12:21:44;;;;;;;22.60;16.00;;;6.30;99.90;;;;;;5026138;28;20138;-41
2023/03/01 12:24:21;;;;;;;21.85;13.85;;;5.80;99.90;;;;;;5026321;28;20087;-41
2023/03/01 12:27:24;;;;;;;20.98;14.32;;;5.90;99.90;;;;;;5026333;28;20049;-41
2023/03/01 12:30:20;;;;;;;20.27;15.18;;;6.10;99.90;;;;;;5025574;28;20088;-39
2023/03/01 12:33:01;;;;;;;19.98;14.68;;;6.10;99.90;;;;;;5023462;28;20136;-46
2023/03/01 12:35:50;;;;;;;21.40;14.77;;;7.00;99.90;;;;;;4994428;28;20785;-44
2023/03/01 12:38:50;;;;;;;22.17;14.95;;;6.70;99.90;;;;;;5043458;28;20053;-45
2023/03/01 12:41:52;;;;;;;24.83;16.15;;;6.00;99.90;;;;;;5042603;28;20136;-47
2023/03/01 12:44:43;;;;;;;22.85;15.27;;;6.20;99.90;;;;;;5046790;28;20044;-45
2023/03/01 12:47:35;;;;;;;22.95;14.68;;;6.30;99.90;;;;;;5047017;28;20101;-47
2023/03/01 12:50:16;;;;;;;21.48;15.95;;;6.30;99.90;;;;;;5046701;28;20041;-45
2023/03/01 12:52:55;;;;;;;23.52;16.35;;;6.30;99.90;;;;;;5047426;28;20037;-45
2023/03/01 12:55:42;;;;;;;24.45;15.68;;;6.30;99.90;;;;;;5046972;28;20722;-44